PWSweather.com
Personal Weather Stations
Station Observations
LABLIDAR
PotenzaIT

PotenzaIT

Lat: 40.6467, Lon: 15.809

Elevation: 2395

Station Type: Oregon WMRS200

High Low Average
Temperature 63.7°F17.6°C 63.0°F17.2°C 63.3°F17.4°C
Dew Point 43.1°F6.2°C 41.6°F5.3°C 42.3°F5.7°C
Winds 4.0 mph 6.4 kmh 0.3 mph 0.5 kmh 2.0 mph WSW3.2 kmh WSW
Wind Gusts 7.6 mph12.2 kmh -- 4.0 mph6.4 kmh
Humidity 47% 45% 46%
Pressure 27.58 in934.0 mb 27.55 in933.0 mb -
Precipitation 0.46 in11.7 mm - -
Hour Temp Dew Point Humidity Winds Wind Gusts Pressure Precip Precip Rate Daily Precip Total
12:02 AM 63.1°F17.3°C 42.5°F5.8°C 47% 2.8 mph N4.5 kmh N 5.4 mph8.7 kmh 27.58 in934.0 mb 0.00 in0.0 mm 0.00 in/hr0.0 mm/hr 0.46 in11.7 mm
12:07 AM 63.2°F17.3°C 42.7°F5.9°C 47% 1.2 mph N1.9 kmh N 5.4 mph8.7 kmh 27.58 in934.0 mb 0.00 in0.0 mm 0.00 in/hr0.0 mm/hr 0.00 in0.0 mm
12:12 AM 63.5°F17.5°C 42.9°F6.1°C 47% 2.4 mph N3.9 kmh N 3.4 mph5.5 kmh 27.58 in934.0 mb 0.00 in0.0 mm 0.00 in/hr0.0 mm/hr 0.00 in0.0 mm
12:17 AM 63.6°F17.6°C 43.1°F6.2°C 47% 3.1 mph N5.0 kmh N 3.4 mph5.5 kmh 27.58 in934.0 mb 0.00 in0.0 mm 0.00 in/hr0.0 mm/hr 0.46 in11.7 mm
12:22 AM 63.5°F17.5°C 42.9°F6.1°C 47% 3.1 mph N5.0 kmh N 3.4 mph5.5 kmh 27.58 in934.0 mb 0.00 in0.0 mm 0.00 in/hr0.0 mm/hr 0.00 in0.0 mm
12:27 AM 63.4°F17.4°C 42.8°F6.0°C 47% 3.1 mph N5.0 kmh N 1.3 mph2.1 kmh 27.58 in934.0 mb 0.00 in0.0 mm 0.00 in/hr0.0 mm/hr 0.00 in0.0 mm
12:32 AM 63.2°F17.3°C 42.7°F5.9°C 47% - N16091.8 kmh N -- 27.58 in934.0 mb 0.00 in0.0 mm 0.00 in/hr0.0 mm/hr 0.00 in0.0 mm
12:37 AM 63.1°F17.3°C 42.6°F5.9°C 47% - N16091.8 kmh N -- 27.58 in934.0 mb 0.00 in0.0 mm 0.00 in/hr0.0 mm/hr 0.00 in0.0 mm
12:42 AM 63.0°F17.2°C 42.5°F5.8°C 47% - N16091.8 kmh N -- 27.58 in934.0 mb 0.00 in0.0 mm 0.00 in/hr0.0 mm/hr 0.00 in0.0 mm
12:47 AM 63.3°F17.4°C 42.7°F5.9°C 47% - N16091.8 kmh N -- 27.58 in934.0 mb 0.00 in0.0 mm 0.00 in/hr0.0 mm/hr 0.00 in0.0 mm
12:52 AM 63.6°F17.6°C 43.0°F6.1°C 47% - N16091.8 kmh N -- 27.58 in934.0 mb 0.00 in0.0 mm 0.00 in/hr0.0 mm/hr 0.00 in0.0 mm
12:57 AM 63.6°F17.6°C 42.7°F5.9°C 46% - N16091.8 kmh N -- 27.58 in934.0 mb 0.00 in0.0 mm 0.00 in/hr0.0 mm/hr 0.00 in0.0 mm
01:02 AM 63.5°F17.5°C 42.5°F5.8°C 47% - N16091.8 kmh N -- 27.58 in934.0 mb 0.00 in0.0 mm 0.00 in/hr0.0 mm/hr 0.00 in0.0 mm
01:07 AM 63.3°F17.4°C 42.7°F5.9°C 47% - N16091.8 kmh N -- 27.58 in934.0 mb 0.00 in0.0 mm 0.00 in/hr0.0 mm/hr 0.00 in0.0 mm
01:12 AM 63.1°F17.3°C 42.6°F5.9°C 47% - N16091.8 kmh N -- 27.58 in934.0 mb 0.00 in0.0 mm 0.00 in/hr0.0 mm/hr 0.00 in0.0 mm
01:17 AM 63.0°F17.2°C 42.5°F5.8°C 47% - N16091.8 kmh N -- 27.58 in934.0 mb 0.00 in0.0 mm 0.00 in/hr0.0 mm/hr 0.00 in0.0 mm
01:22 AM 63.0°F17.2°C 42.5°F5.8°C 47% - N16091.8 kmh N -- 27.58 in934.0 mb 0.00 in0.0 mm 0.00 in/hr0.0 mm/hr 0.00 in0.0 mm
01:27 AM 63.3°F17.4°C 42.8°F6.0°C 47% - N16091.8 kmh N -- 27.58 in934.0 mb 0.00 in0.0 mm 0.00 in/hr0.0 mm/hr 0.00 in0.0 mm
01:32 AM 63.6°F17.6°C 42.8°F6.0°C 46% - N16091.8 kmh N -- 27.58 in934.0 mb 0.00 in0.0 mm 0.00 in/hr0.0 mm/hr 0.00 in0.0 mm
01:37 AM 63.5°F17.5°C 42.4°F5.8°C 46% - N16091.8 kmh N -- 27.58 in934.0 mb 0.00 in0.0 mm 0.00 in/hr0.0 mm/hr 0.00 in0.0 mm
01:42 AM 63.4°F17.4°C 42.3°F5.7°C 46% - N16091.8 kmh N -- 27.58 in934.0 mb 0.00 in0.0 mm 0.00 in/hr0.0 mm/hr 0.00 in0.0 mm
01:47 AM 63.2°F17.3°C 42.1°F5.6°C 46% - N16091.8 kmh N -- 27.58 in934.0 mb 0.00 in0.0 mm 0.00 in/hr0.0 mm/hr 0.00 in0.0 mm
01:52 AM 63.1°F17.3°C 42.5°F5.8°C 47% - N16091.8 kmh N -- 27.58 in934.0 mb 0.00 in0.0 mm 0.00 in/hr0.0 mm/hr 0.00 in0.0 mm
01:57 AM 63.0°F17.2°C 42.4°F5.8°C 47% - N16091.8 kmh N -- 27.58 in934.0 mb 0.00 in0.0 mm 0.00 in/hr0.0 mm/hr 0.00 in0.0 mm
02:02 AM 63.0°F17.2°C 42.5°F5.8°C 47% 3.0 mph NNW4.8 kmh NNW 3.4 mph5.5 kmh 27.58 in934.0 mb 0.00 in0.0 mm 0.00 in/hr0.0 mm/hr 0.00 in0.0 mm
02:07 AM 63.4°F17.4°C 42.8°F6.0°C 47% 2.8 mph N4.5 kmh N 4.3 mph6.9 kmh 27.58 in934.0 mb 0.00 in0.0 mm 0.00 in/hr0.0 mm/hr 0.00 in0.0 mm
02:12 AM 63.5°F17.5°C 42.4°F5.8°C 46% 2.8 mph N4.5 kmh N 4.3 mph6.9 kmh 27.58 in934.0 mb 0.00 in0.0 mm 0.00 in/hr0.0 mm/hr 0.00 in0.0 mm
02:17 AM 63.5°F17.5°C 42.4°F5.8°C 46% 2.4 mph NNE3.9 kmh NNE 6.7 mph10.8 kmh 27.58 in934.0 mb 0.00 in0.0 mm 0.00 in/hr0.0 mm/hr 0.00 in0.0 mm
02:22 AM 63.4°F17.4°C 42.2°F5.7°C 46% 0.8 mph NNW1.3 kmh NNW 6.7 mph10.8 kmh 27.58 in934.0 mb 0.00 in0.0 mm 0.00 in/hr0.0 mm/hr 0.00 in0.0 mm
02:27 AM 63.2°F17.3°C 42.1°F5.6°C 46% 1.8 mph N2.9 kmh N 4.0 mph6.4 kmh 27.58 in934.0 mb 0.00 in0.0 mm 0.00 in/hr0.0 mm/hr 0.00 in0.0 mm
02:32 AM 63.1°F17.3°C 42.0°F5.6°C 46% 2.7 mph NNE4.3 kmh NNE 5.6 mph9.0 kmh 27.58 in934.0 mb 0.00 in0.0 mm 0.00 in/hr0.0 mm/hr 0.00 in0.0 mm
02:37 AM 63.0°F17.2°C 41.9°F5.5°C 46% 3.2 mph N5.1 kmh N 5.6 mph9.0 kmh 27.58 in934.0 mb 0.00 in0.0 mm 0.00 in/hr0.0 mm/hr 0.00 in0.0 mm
02:42 AM 63.1°F17.3°C 42.0°F5.6°C 46% 2.2 mph NW3.5 kmh NW 4.3 mph6.9 kmh 27.58 in934.0 mb 0.00 in0.0 mm 0.00 in/hr0.0 mm/hr 0.00 in0.0 mm
02:47 AM 63.4°F17.4°C 42.3°F5.7°C 46% 2.0 mph NNW3.2 kmh NNW 4.0 mph6.4 kmh 27.58 in934.0 mb 0.00 in0.0 mm 0.00 in/hr0.0 mm/hr 0.00 in0.0 mm
02:52 AM 63.5°F17.5°C 42.4°F5.8°C 46% 2.3 mph NNW3.7 kmh NNW 5.4 mph8.7 kmh 27.58 in934.0 mb 0.00 in0.0 mm 0.00 in/hr0.0 mm/hr 0.00 in0.0 mm
02:57 AM 63.5°F17.5°C 42.4°F5.8°C 46% 3.6 mph NE5.8 kmh NE 6.5 mph10.5 kmh 27.58 in934.0 mb 0.00 in0.0 mm 0.00 in/hr0.0 mm/hr 0.00 in0.0 mm
03:02 AM 63.3°F17.4°C 42.2°F5.7°C 46% 1.4 mph N2.3 kmh N 6.5 mph10.5 kmh 27.58 in934.0 mb 0.00 in0.0 mm 0.00 in/hr0.0 mm/hr 0.00 in0.0 mm
03:07 AM 63.1°F17.3°C 42.0°F5.6°C 46% 2.6 mph N4.2 kmh N 5.6 mph9.0 kmh 27.58 in934.0 mb 0.00 in0.0 mm 0.00 in/hr0.0 mm/hr 0.00 in0.0 mm
03:12 AM 63.0°F17.2°C 41.9°F5.5°C 46% 2.9 mph NNE4.7 kmh NNE 5.4 mph8.7 kmh 27.58 in934.0 mb 0.00 in0.0 mm 0.00 in/hr0.0 mm/hr 0.00 in0.0 mm
03:17 AM 63.0°F17.2°C 41.9°F5.5°C 46% 2.6 mph N4.2 kmh N 4.3 mph6.9 kmh 27.58 in934.0 mb 0.00 in0.0 mm 0.00 in/hr0.0 mm/hr 0.00 in0.0 mm
03:22 AM 63.2°F17.3°C 42.1°F5.6°C 46% 3.2 mph NW5.1 kmh NW 5.6 mph9.0 kmh 27.58 in934.0 mb 0.00 in0.0 mm 0.00 in/hr0.0 mm/hr 0.00 in0.0 mm
03:27 AM 63.5°F17.5°C 42.4°F5.8°C 46% 2.5 mph NE4.0 kmh NE 5.6 mph9.0 kmh 27.58 in934.0 mb 0.00 in0.0 mm 0.00 in/hr0.0 mm/hr 0.00 in0.0 mm
03:32 AM 63.5°F17.5°C 42.3°F5.7°C 45% 2.1 mph N3.4 kmh N 3.8 mph6.1 kmh 27.58 in934.0 mb 0.00 in0.0 mm 0.00 in/hr0.0 mm/hr 0.00 in0.0 mm
03:37 AM 63.4°F17.4°C 42.1°F5.6°C 46% 2.3 mph WSW3.7 kmh WSW 4.9 mph7.9 kmh 27.58 in934.0 mb 0.00 in0.0 mm 0.00 in/hr0.0 mm/hr 0.00 in0.0 mm
03:42 AM 63.2°F17.3°C 42.1°F5.6°C 46% 2.8 mph NNE4.5 kmh NNE 4.9 mph7.9 kmh 27.58 in934.0 mb 0.00 in0.0 mm 0.00 in/hr0.0 mm/hr 0.00 in0.0 mm
03:47 AM 63.1°F17.3°C 42.0°F5.6°C 46% 2.1 mph NNE3.4 kmh NNE 4.9 mph7.9 kmh 27.58 in934.0 mb 0.00 in0.0 mm 0.00 in/hr0.0 mm/hr 0.00 in0.0 mm
03:52 AM 63.0°F17.2°C 41.9°F5.5°C 46% 1.6 mph NW2.6 kmh NW 2.9 mph4.7 kmh 27.58 in934.0 mb 0.00 in0.0 mm 0.00 in/hr0.0 mm/hr 0.00 in0.0 mm
03:57 AM 63.1°F17.3°C 42.0°F5.6°C 46% 1.6 mph WNW2.6 kmh WNW 2.9 mph4.7 kmh 27.55 in933.0 mb 0.00 in0.0 mm 0.00 in/hr0.0 mm/hr 0.00 in0.0 mm
04:02 AM 63.4°F17.4°C 42.2°F5.7°C 46% 0.3 mph NNW0.5 kmh NNW 2.9 mph4.7 kmh 27.55 in933.0 mb 0.00 in0.0 mm 0.00 in/hr0.0 mm/hr 0.00 in0.0 mm
04:07 AM 63.5°F17.5°C 41.8°F5.4°C 45% 2.1 mph NW3.4 kmh NW 3.6 mph5.8 kmh 27.55 in933.0 mb 0.00 in0.0 mm 0.00 in/hr0.0 mm/hr 0.00 in0.0 mm
04:12 AM 63.5°F17.5°C 41.8°F5.4°C 45% 0.6 mph NNW1.0 kmh NNW 3.6 mph5.8 kmh 27.55 in933.0 mb 0.00 in0.0 mm 0.00 in/hr0.0 mm/hr 0.00 in0.0 mm
04:17 AM 63.3°F17.4°C 41.6°F5.3°C 45% 2.4 mph NE3.9 kmh NE 3.4 mph5.5 kmh 27.55 in933.0 mb 0.00 in0.0 mm 0.00 in/hr0.0 mm/hr 0.00 in0.0 mm
04:22 AM 63.2°F17.3°C 41.7°F5.4°C 46% 1.3 mph NE2.1 kmh NE 3.4 mph5.5 kmh 27.55 in933.0 mb 0.00 in0.0 mm 0.00 in/hr0.0 mm/hr 0.00 in0.0 mm
04:27 AM 63.1°F17.3°C 42.0°F5.6°C 46% 2.6 mph N4.2 kmh N 5.4 mph8.7 kmh 27.58 in934.0 mb 0.00 in0.0 mm 0.00 in/hr0.0 mm/hr 0.00 in0.0 mm
04:32 AM 63.0°F17.2°C 41.9°F5.5°C 46% 1.8 mph N2.9 kmh N 5.4 mph8.7 kmh 27.58 in934.0 mb 0.00 in0.0 mm 0.00 in/hr0.0 mm/hr 0.00 in0.0 mm
04:37 AM 63.3°F17.4°C 42.2°F5.7°C 46% 3.4 mph N5.5 kmh N 7.2 mph11.6 kmh 27.58 in934.0 mb 0.00 in0.0 mm 0.00 in/hr0.0 mm/hr 0.00 in0.0 mm
04:42 AM 63.5°F17.5°C 42.0°F5.6°C 45% 1.7 mph NW2.7 kmh NW 7.2 mph11.6 kmh 27.58 in934.0 mb 0.00 in0.0 mm 0.00 in/hr0.0 mm/hr 0.00 in0.0 mm
04:47 AM 63.5°F17.5°C 41.8°F5.4°C 45% 3.3 mph N5.3 kmh N 7.6 mph12.2 kmh 27.58 in934.0 mb 0.00 in0.0 mm 0.00 in/hr0.0 mm/hr 0.00 in0.0 mm
04:52 AM 63.5°F17.5°C 41.8°F5.4°C 45% 3.2 mph N5.1 kmh N 7.6 mph12.2 kmh 27.58 in934.0 mb 0.00 in0.0 mm 0.00 in/hr0.0 mm/hr 0.00 in0.0 mm
04:57 AM 63.3°F17.4°C 41.6°F5.3°C 45% 3.6 mph N5.8 kmh N 6.0 mph9.7 kmh 27.58 in934.0 mb 0.00 in0.0 mm 0.00 in/hr0.0 mm/hr 0.00 in0.0 mm
05:02 AM 63.1°F17.3°C 42.0°F5.6°C 46% 3.1 mph NW5.0 kmh NW 6.0 mph9.7 kmh 27.58 in934.0 mb 0.00 in0.0 mm 0.00 in/hr0.0 mm/hr 0.00 in0.0 mm
05:07 AM 63.0°F17.2°C 41.9°F5.5°C 46% 3.8 mph NE6.1 kmh NE 7.2 mph11.6 kmh 27.58 in934.0 mb 0.00 in0.0 mm 0.00 in/hr0.0 mm/hr 0.00 in0.0 mm
05:12 AM 63.1°F17.3°C 42.0°F5.6°C 46% 3.0 mph E4.8 kmh E 7.2 mph11.6 kmh 27.58 in934.0 mb 0.00 in0.0 mm 0.00 in/hr0.0 mm/hr 0.00 in0.0 mm
05:17 AM 63.4°F17.4°C 42.3°F5.7°C 46% 3.9 mph N6.3 kmh N 6.0 mph9.7 kmh 27.58 in934.0 mb 0.00 in0.0 mm 0.00 in/hr0.0 mm/hr 0.00 in0.0 mm
05:22 AM 63.6°F17.6°C 42.2°F5.7°C 45% 2.6 mph N4.2 kmh N 6.0 mph9.7 kmh 27.58 in934.0 mb 0.00 in0.0 mm 0.00 in/hr0.0 mm/hr 0.00 in0.0 mm
05:27 AM 63.5°F17.5°C 41.8°F5.4°C 45% 3.2 mph N5.1 kmh N 5.6 mph9.0 kmh 27.58 in934.0 mb 0.00 in0.0 mm 0.00 in/hr0.0 mm/hr 0.00 in0.0 mm
05:32 AM 63.5°F17.5°C 41.8°F5.4°C 45% 2.5 mph NNW4.0 kmh NNW 6.3 mph10.1 kmh 27.58 in934.0 mb 0.00 in0.0 mm 0.00 in/hr0.0 mm/hr 0.00 in0.0 mm
05:37 AM 63.3°F17.4°C 42.2°F5.7°C 46% 3.2 mph N5.1 kmh N 6.3 mph10.1 kmh 27.58 in934.0 mb 0.00 in0.0 mm 0.00 in/hr0.0 mm/hr 0.00 in0.0 mm
05:42 AM 63.1°F17.3°C 42.0°F5.6°C 46% 2.9 mph WNW4.7 kmh WNW 5.6 mph9.0 kmh 27.58 in934.0 mb 0.00 in0.0 mm 0.00 in/hr0.0 mm/hr 0.00 in0.0 mm
05:47 AM 63.1°F17.3°C 42.0°F5.6°C 46% 3.4 mph NNW5.5 kmh NNW 5.6 mph9.0 kmh 27.58 in934.0 mb 0.00 in0.0 mm 0.00 in/hr0.0 mm/hr 0.00 in0.0 mm
05:52 AM 63.3°F17.4°C 42.2°F5.7°C 46% 2.3 mph WNW3.7 kmh WNW 4.5 mph7.2 kmh 27.58 in934.0 mb 0.00 in0.0 mm 0.00 in/hr0.0 mm/hr 0.00 in0.0 mm
05:57 AM 63.6°F17.6°C 42.5°F5.8°C 46% 2.3 mph N3.7 kmh N 3.6 mph5.8 kmh 27.58 in934.0 mb 0.00 in0.0 mm 0.00 in/hr0.0 mm/hr 0.00 in0.0 mm
06:02 AM 63.7°F17.6°C 42.2°F5.7°C 45% 2.7 mph NW4.3 kmh NW 4.9 mph7.9 kmh 27.58 in934.0 mb 0.00 in0.0 mm 0.00 in/hr0.0 mm/hr 0.00 in0.0 mm
06:07 AM 63.6°F17.6°C 41.9°F5.5°C 45% 4.0 mph N6.4 kmh N 6.3 mph10.1 kmh 27.58 in934.0 mb 0.00 in0.0 mm 0.00 in/hr0.0 mm/hr 0.00 in0.0 mm
06:12 AM 63.5°F17.5°C 42.2°F5.7°C 46% 2.7 mph NW4.3 kmh NW 6.3 mph10.1 kmh 27.58 in934.0 mb 0.00 in0.0 mm 0.00 in/hr0.0 mm/hr 0.00 in0.0 mm
06:17 AM 63.4°F17.4°C 42.3°F5.7°C 46% 1.3 mph N2.1 kmh N 6.0 mph9.7 kmh 27.58 in934.0 mb 0.00 in0.0 mm 0.00 in/hr0.0 mm/hr 0.00 in0.0 mm
06:22 AM 63.2°F17.3°C 42.1°F5.6°C 46% 0.5 mph ESE0.8 kmh ESE 3.6 mph5.8 kmh 27.58 in934.0 mb 0.00 in0.0 mm 0.00 in/hr0.0 mm/hr 0.00 in0.0 mm
06:27 AM 63.3°F17.4°C 42.2°F5.7°C 46% 1.2 mph WNW1.9 kmh WNW 5.8 mph9.3 kmh 27.58 in934.0 mb 0.00 in0.0 mm 0.00 in/hr0.0 mm/hr 0.00 in0.0 mm
06:32 AM 63.6°F17.6°C 42.5°F5.8°C 46% 2.5 mph N4.0 kmh N 5.8 mph9.3 kmh 27.58 in934.0 mb 0.00 in0.0 mm 0.00 in/hr0.0 mm/hr 0.00 in0.0 mm
06:37 AM 64.0°F17.8°C 42.5°F5.8°C 45% 4.0 mph NW6.4 kmh NW 5.4 mph8.7 kmh 27.58 in934.0 mb 0.00 in0.0 mm 0.00 in/hr0.0 mm/hr 0.00 in0.0 mm
06:42 AM 64.0°F17.8°C 42.3°F5.7°C 45% 2.8 mph W4.5 kmh W 5.4 mph8.7 kmh 27.58 in934.0 mb 0.00 in0.0 mm 0.00 in/hr0.0 mm/hr 0.00 in0.0 mm
06:47 AM 63.9°F17.7°C 42.2°F5.7°C 45% 2.1 mph NNW3.4 kmh NNW 3.8 mph6.1 kmh 27.58 in934.0 mb 0.00 in0.0 mm 0.00 in/hr0.0 mm/hr 0.00 in0.0 mm
06:52 AM 63.9°F17.7°C 42.1°F5.6°C 45% 1.6 mph NW2.6 kmh NW 3.8 mph6.1 kmh 27.58 in934.0 mb 0.00 in0.0 mm 0.00 in/hr0.0 mm/hr 0.00 in0.0 mm
06:57 AM 63.8°F17.7°C 42.1°F5.6°C 45% 1.6 mph NW2.6 kmh NW 2.5 mph4.0 kmh 27.58 in934.0 mb 0.00 in0.0 mm 0.00 in/hr0.0 mm/hr 0.00 in0.0 mm
07:02 AM 63.7°F17.6°C 42.0°F5.6°C 45% - N16091.8 kmh N -- 27.58 in934.0 mb 0.00 in0.0 mm 0.00 in/hr0.0 mm/hr 0.00 in0.0 mm
07:07 AM 63.8°F17.7°C 42.1°F5.6°C 45% - N16091.8 kmh N -- 27.58 in934.0 mb 0.00 in0.0 mm 0.00 in/hr0.0 mm/hr 0.00 in0.0 mm
07:12 AM 64.2°F17.9°C 42.4°F5.8°C 45% - N16091.8 kmh N -- 27.58 in934.0 mb 0.00 in0.0 mm 0.00 in/hr0.0 mm/hr 0.00 in0.0 mm
07:17 AM 64.4°F18.0°C 42.6°F5.9°C 45% - N16091.8 kmh N -- 27.58 in934.0 mb 0.00 in0.0 mm 0.00 in/hr0.0 mm/hr 0.00 in0.0 mm
07:22 AM 64.4°F18.0°C 42.6°F5.9°C 45% - N16091.8 kmh N -- 27.58 in934.0 mb 0.00 in0.0 mm 0.00 in/hr0.0 mm/hr 0.00 in0.0 mm
07:27 AM 64.3°F17.9°C 42.5°F5.8°C 45% - N16091.8 kmh N -- 27.58 in934.0 mb 0.00 in0.0 mm 0.00 in/hr0.0 mm/hr 0.00 in0.0 mm
07:32 AM 64.2°F17.9°C 42.5°F5.8°C 45% - N16091.8 kmh N -- 27.58 in934.0 mb 0.00 in0.0 mm 0.00 in/hr0.0 mm/hr 0.00 in0.0 mm
07:37 AM 64.1°F17.8°C 42.4°F5.8°C 45% - N16091.8 kmh N -- 27.58 in934.0 mb 0.00 in0.0 mm 0.00 in/hr0.0 mm/hr 0.00 in0.0 mm
07:42 AM 64.0°F17.8°C 42.3°F5.7°C 45% - N16091.8 kmh N -- 27.58 in934.0 mb 0.00 in0.0 mm 0.00 in/hr0.0 mm/hr 0.00 in0.0 mm
07:47 AM 64.1°F17.8°C 42.4°F5.8°C 45% - N16091.8 kmh N -- 27.58 in934.0 mb 0.00 in0.0 mm 0.00 in/hr0.0 mm/hr 0.00 in0.0 mm
07:52 AM 64.4°F18.0°C 42.7°F5.9°C 45% - N16091.8 kmh N -- 27.58 in934.0 mb 0.00 in0.0 mm 0.00 in/hr0.0 mm/hr 0.00 in0.0 mm
07:57 AM 64.8°F18.2°C 42.4°F5.8°C 44% - N16091.8 kmh N -- 27.58 in934.0 mb 0.00 in0.0 mm 0.00 in/hr0.0 mm/hr 0.00 in0.0 mm
08:02 AM 64.8°F18.2°C 42.4°F5.8°C 44% - N16091.8 kmh N -- 27.58 in934.0 mb 0.00 in0.0 mm 0.00 in/hr0.0 mm/hr 0.00 in0.0 mm
08:07 AM 64.8°F18.2°C 42.4°F5.8°C 44% - N16091.8 kmh N -- 27.58 in934.0 mb 0.00 in0.0 mm 0.00 in/hr0.0 mm/hr 0.00 in0.0 mm
08:12 AM 64.8°F18.2°C 42.4°F5.8°C 44% - N16091.8 kmh N -- 27.58 in934.0 mb 0.00 in0.0 mm 0.00 in/hr0.0 mm/hr 0.00 in0.0 mm
08:17 AM 64.8°F18.2°C 42.4°F5.8°C 44% - N16091.8 kmh N -- 27.58 in934.0 mb 0.00 in0.0 mm 0.00 in/hr0.0 mm/hr 0.00 in0.0 mm
08:22 AM 64.8°F18.2°C 43.0°F6.1°C 45% - N16091.8 kmh N -- 27.58 in934.0 mb 0.00 in0.0 mm 0.00 in/hr0.0 mm/hr 0.00 in0.0 mm
08:27 AM 64.8°F18.2°C 43.0°F6.1°C 45% - N16091.8 kmh N -- 27.61 in935.0 mb 0.00 in0.0 mm 0.00 in/hr0.0 mm/hr 0.00 in0.0 mm
08:32 AM 65.0°F18.3°C 43.1°F6.2°C 45% - N16091.8 kmh N -- 27.61 in935.0 mb 0.00 in0.0 mm 0.00 in/hr0.0 mm/hr 0.00 in0.0 mm
08:37 AM 65.5°F18.6°C 43.1°F6.2°C 44% - N16091.8 kmh N -- 27.61 in935.0 mb 0.00 in0.0 mm 0.00 in/hr0.0 mm/hr 0.00 in0.0 mm
08:42 AM 65.7°F18.7°C 43.2°F6.2°C 44% - N16091.8 kmh N -- 27.58 in934.0 mb 0.00 in0.0 mm 0.00 in/hr0.0 mm/hr 0.00 in0.0 mm
08:47 AM 65.7°F18.7°C 43.2°F6.2°C 44% - N16091.8 kmh N -- 27.58 in934.0 mb 0.00 in0.0 mm 0.00 in/hr0.0 mm/hr 0.00 in0.0 mm
08:52 AM 65.7°F18.7°C 43.2°F6.2°C 44% - N16091.8 kmh N -- 27.58 in934.0 mb 0.00 in0.0 mm 0.00 in/hr0.0 mm/hr 0.00 in0.0 mm
08:57 AM 65.7°F18.7°C 43.2°F6.2°C 44% - N16091.8 kmh N -- 27.61 in935.0 mb 0.00 in0.0 mm 0.00 in/hr0.0 mm/hr 0.00 in0.0 mm
09:02 AM 65.7°F18.7°C 43.2°F6.2°C 44% - N16091.8 kmh N -- 27.61 in935.0 mb 0.00 in0.0 mm 0.00 in/hr0.0 mm/hr 0.00 in0.0 mm
09:07 AM 65.7°F18.7°C 43.2°F6.2°C 44% - N16091.8 kmh N -- 27.61 in935.0 mb 0.00 in0.0 mm 0.00 in/hr0.0 mm/hr 0.00 in0.0 mm
09:12 AM 65.7°F18.7°C 43.2°F6.2°C 44% - N16091.8 kmh N -- 27.61 in935.0 mb 0.00 in0.0 mm 0.00 in/hr0.0 mm/hr 0.00 in0.0 mm
09:17 AM 65.7°F18.7°C 43.2°F6.2°C 44% - N16091.8 kmh N -- 27.61 in935.0 mb 0.00 in0.0 mm 0.00 in/hr0.0 mm/hr 0.00 in0.0 mm
09:22 AM 66.1°F18.9°C 43.6°F6.4°C 44% - N16091.8 kmh N -- 27.61 in935.0 mb 0.00 in0.0 mm 0.00 in/hr0.0 mm/hr 0.00 in0.0 mm
09:27 AM 66.5°F19.2°C 43.5°F6.4°C 43% - N16091.8 kmh N -- 27.58 in934.0 mb 0.00 in0.0 mm 0.00 in/hr0.0 mm/hr 0.00 in0.0 mm
09:32 AM 66.7°F19.3°C 43.5°F6.4°C 43% - N16091.8 kmh N -- 27.58 in934.0 mb 0.00 in0.0 mm 0.00 in/hr0.0 mm/hr 0.00 in0.0 mm
09:37 AM 66.9°F19.4°C 43.7°F6.5°C 43% - N16091.8 kmh N -- 27.58 in934.0 mb 0.00 in0.0 mm 0.00 in/hr0.0 mm/hr 0.00 in0.0 mm
09:42 AM 67.0°F19.4°C 43.8°F6.6°C 43% - N16091.8 kmh N -- 27.61 in935.0 mb 0.00 in0.0 mm 0.00 in/hr0.0 mm/hr 0.00 in0.0 mm
09:47 AM 67.2°F19.6°C 43.9°F6.6°C 43% - N16091.8 kmh N -- 27.61 in935.0 mb 0.00 in0.0 mm 0.00 in/hr0.0 mm/hr 0.00 in0.0 mm
09:52 AM 67.3°F19.6°C 44.0°F6.7°C 43% - N16091.8 kmh N -- 27.61 in935.0 mb 0.00 in0.0 mm 0.00 in/hr0.0 mm/hr 0.00 in0.0 mm
09:57 AM 67.4°F19.7°C 43.7°F6.5°C 42% - N16091.8 kmh N -- 27.61 in935.0 mb 0.00 in0.0 mm 0.00 in/hr0.0 mm/hr 0.00 in0.0 mm
10:02 AM 67.5°F19.7°C 43.6°F6.4°C 42% - N16091.8 kmh N -- 27.61 in935.0 mb 0.00 in0.0 mm 0.00 in/hr0.0 mm/hr 0.00 in0.0 mm
10:07 AM 67.5°F19.7°C 43.6°F6.4°C 42% - N16091.8 kmh N -- 27.61 in935.0 mb 0.00 in0.0 mm 0.00 in/hr0.0 mm/hr 0.00 in0.0 mm
10:12 AM 67.5°F19.7°C 43.6°F6.4°C 42% - N16091.8 kmh N -- 27.61 in935.0 mb 0.00 in0.0 mm 0.00 in/hr0.0 mm/hr 0.00 in0.0 mm
10:17 AM 67.6°F19.8°C 43.8°F6.6°C 42% - N16091.8 kmh N -- 27.61 in935.0 mb 0.00 in0.0 mm 0.00 in/hr0.0 mm/hr 0.00 in0.0 mm
10:22 AM 67.6°F19.8°C 43.7°F6.5°C 42% - N16091.8 kmh N -- 27.61 in935.0 mb 0.00 in0.0 mm 0.00 in/hr0.0 mm/hr 0.00 in0.0 mm
10:27 AM 67.6°F19.8°C 43.5°F6.4°C 42% - N16091.8 kmh N -- 27.61 in935.0 mb 0.00 in0.0 mm 0.00 in/hr0.0 mm/hr 0.00 in0.0 mm
10:32 AM 67.6°F19.8°C 43.3°F6.3°C 41% - N16091.8 kmh N -- 27.61 in935.0 mb 0.00 in0.0 mm 0.00 in/hr0.0 mm/hr 0.00 in0.0 mm
10:37 AM 67.7°F19.8°C 43.3°F6.3°C 41% - N16091.8 kmh N -- 27.61 in935.0 mb 0.00 in0.0 mm 0.00 in/hr0.0 mm/hr 0.00 in0.0 mm
10:42 AM 67.8°F19.9°C 43.3°F6.3°C 41% - N16091.8 kmh N -- 27.61 in935.0 mb 0.00 in0.0 mm 0.00 in/hr0.0 mm/hr 0.00 in0.0 mm
10:47 AM 67.9°F19.9°C 43.3°F6.3°C 41% - N16091.8 kmh N -- 27.61 in935.0 mb 0.00 in0.0 mm 0.00 in/hr0.0 mm/hr 0.00 in0.0 mm
10:52 AM 68.0°F20.0°C 43.5°F6.4°C 41% - N16091.8 kmh N -- 27.61 in935.0 mb 0.00 in0.0 mm 0.00 in/hr0.0 mm/hr 0.00 in0.0 mm
10:57 AM 68.0°F20.0°C 43.5°F6.4°C 41% - N16091.8 kmh N -- 27.61 in935.0 mb 0.00 in0.0 mm 0.00 in/hr0.0 mm/hr 0.00 in0.0 mm
11:02 AM 68.0°F20.0°C 43.5°F6.4°C 41% - N16091.8 kmh N -- 27.61 in935.0 mb 0.00 in0.0 mm 0.00 in/hr0.0 mm/hr 0.00 in0.0 mm
11:07 AM 68.2°F20.1°C 43.0°F6.1°C 40% - N16091.8 kmh N -- 27.61 in935.0 mb 0.00 in0.0 mm 0.00 in/hr0.0 mm/hr 0.00 in0.0 mm
11:12 AM 68.2°F20.1°C 43.0°F6.1°C 40% - N16091.8 kmh N -- 27.58 in934.0 mb 0.00 in0.0 mm 0.00 in/hr0.0 mm/hr 0.00 in0.0 mm
11:17 AM 68.2°F20.1°C 43.0°F6.1°C 40% - N16091.8 kmh N -- 27.58 in934.0 mb 0.00 in0.0 mm 0.00 in/hr0.0 mm/hr 0.00 in0.0 mm
11:22 AM 68.3°F20.2°C 43.1°F6.2°C 40% - N16091.8 kmh N -- 27.58 in934.0 mb 0.00 in0.0 mm 0.00 in/hr0.0 mm/hr 0.00 in0.0 mm
11:27 AM 68.4°F20.2°C 43.1°F6.2°C 40% - N16091.8 kmh N -- 27.58 in934.0 mb 0.00 in0.0 mm 0.00 in/hr0.0 mm/hr 0.00 in0.0 mm
11:32 AM 68.5°F20.3°C 43.3°F6.3°C 40% - N16091.8 kmh N -- 27.58 in934.0 mb 0.00 in0.0 mm 0.00 in/hr0.0 mm/hr 0.00 in0.0 mm
11:37 AM 68.5°F20.3°C 43.3°F6.3°C 40% - N16091.8 kmh N -- 27.58 in934.0 mb 0.00 in0.0 mm 0.00 in/hr0.0 mm/hr 0.00 in0.0 mm
11:42 AM 68.7°F20.4°C 43.4°F6.3°C 40% - N16091.8 kmh N -- 27.58 in934.0 mb 0.00 in0.0 mm 0.00 in/hr0.0 mm/hr 0.00 in0.0 mm
11:47 AM 68.8°F20.4°C 43.5°F6.4°C 39% - N16091.8 kmh N -- 27.58 in934.0 mb 0.00 in0.0 mm 0.00 in/hr0.0 mm/hr 0.00 in0.0 mm
11:52 AM 68.9°F20.5°C 43.3°F6.3°C 40% - N16091.8 kmh N -- 27.58 in934.0 mb 0.00 in0.0 mm 0.00 in/hr0.0 mm/hr 0.00 in0.0 mm
11:57 AM 69.1°F20.6°C 43.3°F6.3°C 39% - N16091.8 kmh N -- 27.58 in934.0 mb 0.00 in0.0 mm 0.00 in/hr0.0 mm/hr 0.00 in0.0 mm
12:02 PM 69.1°F20.6°C 43.1°F6.2°C 39% - N16091.8 kmh N -- 27.58 in934.0 mb 0.00 in0.0 mm 0.00 in/hr0.0 mm/hr 0.00 in0.0 mm
12:07 PM 69.2°F20.7°C 43.2°F6.2°C 39% - N16091.8 kmh N -- 27.58 in934.0 mb 0.00 in0.0 mm 0.00 in/hr0.0 mm/hr 0.00 in0.0 mm
12:12 PM 69.3°F20.7°C 43.3°F6.3°C 39% - N16091.8 kmh N -- 27.58 in934.0 mb 0.00 in0.0 mm 0.00 in/hr0.0 mm/hr 0.00 in0.0 mm
12:17 PM 69.3°F20.7°C 43.3°F6.3°C 39% - N16091.8 kmh N -- 27.58 in934.0 mb 0.00 in0.0 mm 0.00 in/hr0.0 mm/hr 0.00 in0.0 mm
12:22 PM 69.3°F20.7°C 43.3°F6.3°C 39% - N16091.8 kmh N -- 27.58 in934.0 mb 0.00 in0.0 mm 0.00 in/hr0.0 mm/hr 0.00 in0.0 mm
12:27 PM 69.3°F20.7°C 43.3°F6.3°C 39% - N16091.8 kmh N -- 27.58 in934.0 mb 0.00 in0.0 mm 0.00 in/hr0.0 mm/hr 0.00 in0.0 mm
12:32 PM 69.3°F20.7°C 43.3°F6.3°C 39% - N16091.8 kmh N -- 27.58 in934.0 mb 0.00 in0.0 mm 0.00 in/hr0.0 mm/hr 0.00 in0.0 mm
12:37 PM 69.3°F20.7°C 43.3°F6.3°C 39% - N16091.8 kmh N -- 27.58 in934.0 mb 0.00 in0.0 mm 0.00 in/hr0.0 mm/hr 0.00 in0.0 mm
12:42 PM 69.4°F20.8°C 43.6°F6.4°C 39% - N16091.8 kmh N -- 27.58 in934.0 mb 0.00 in0.0 mm 0.00 in/hr0.0 mm/hr 0.00 in0.0 mm
12:47 PM 69.6°F20.9°C 43.6°F6.4°C 39% - N16091.8 kmh N -- 27.58 in934.0 mb 0.00 in0.0 mm 0.00 in/hr0.0 mm/hr 0.00 in0.0 mm
12:52 PM 69.8°F21.0°C 43.8°F6.6°C 39% - N16091.8 kmh N -- 27.58 in934.0 mb 0.00 in0.0 mm 0.00 in/hr0.0 mm/hr 0.00 in0.0 mm
12:57 PM 70.0°F21.1°C 43.6°F6.4°C 38% - N16091.8 kmh N -- 27.58 in934.0 mb 0.00 in0.0 mm 0.00 in/hr0.0 mm/hr 0.00 in0.0 mm
01:02 PM 70.2°F21.2°C 43.5°F6.4°C 38% - N16091.8 kmh N -- 27.58 in934.0 mb 0.00 in0.0 mm 0.00 in/hr0.0 mm/hr 0.00 in0.0 mm
01:07 PM 70.4°F21.3°C 43.6°F6.4°C 38% - N16091.8 kmh N -- 27.58 in934.0 mb 0.00 in0.0 mm 0.00 in/hr0.0 mm/hr 0.00 in0.0 mm
01:12 PM 70.6°F21.4°C 43.8°F6.6°C 38% - N16091.8 kmh N -- 27.58 in934.0 mb 0.00 in0.0 mm 0.00 in/hr0.0 mm/hr 0.00 in0.0 mm
01:17 PM 70.7°F21.5°C 43.8°F6.6°C 38% - N16091.8 kmh N -- 27.58 in934.0 mb 0.00 in0.0 mm 0.00 in/hr0.0 mm/hr 0.00 in0.0 mm
01:22 PM 70.9°F21.6°C 43.7°F6.5°C 37% - N16091.8 kmh N -- 27.58 in934.0 mb 0.00 in0.0 mm 0.00 in/hr0.0 mm/hr 0.00 in0.0 mm
01:27 PM 71.1°F21.7°C 43.7°F6.5°C 37% - N16091.8 kmh N -- 27.55 in933.0 mb 0.00 in0.0 mm 0.00 in/hr0.0 mm/hr 0.00 in0.0 mm
01:32 PM 71.3°F21.8°C 43.7°F6.5°C 37% 8.7 mph E14.0 kmh E 8.1 mph13.0 kmh 27.55 in933.0 mb 0.00 in0.0 mm 0.00 in/hr0.0 mm/hr 0.00 in0.0 mm
01:37 PM 71.4°F21.9°C 43.8°F6.6°C 37% 8.7 mph NE14.0 kmh NE 8.1 mph13.0 kmh 27.55 in933.0 mb 0.00 in0.0 mm 0.00 in/hr0.0 mm/hr 0.00 in0.0 mm
01:42 PM 71.6°F22.0°C 44.0°F6.7°C 37% 3.8 mph NE6.1 kmh NE 4.3 mph6.9 kmh 27.55 in933.0 mb 0.00 in0.0 mm 0.00 in/hr0.0 mm/hr 0.00 in0.0 mm
01:47 PM 71.7°F22.1°C 44.0°F6.7°C 37% 3.8 mph NE6.1 kmh NE 4.3 mph6.9 kmh 27.55 in933.0 mb 0.00 in0.0 mm 0.00 in/hr0.0 mm/hr 0.00 in0.0 mm
01:52 PM 71.9°F22.2°C 44.3°F6.8°C 37% 3.8 mph NE6.1 kmh NE 3.1 mph5.0 kmh 27.55 in933.0 mb 0.00 in0.0 mm 0.00 in/hr0.0 mm/hr 0.00 in0.0 mm
01:57 PM 72.1°F22.3°C 44.4°F6.9°C 37% - N16091.8 kmh N -- 27.55 in933.0 mb 0.00 in0.0 mm 0.00 in/hr0.0 mm/hr 0.00 in0.0 mm
02:02 PM 72.4°F22.4°C 44.1°F6.7°C 36% - N16091.8 kmh N -- 27.55 in933.0 mb 0.00 in0.0 mm 0.00 in/hr0.0 mm/hr 0.00 in0.0 mm
02:07 PM 72.7°F22.6°C 44.3°F6.8°C 36% - N16091.8 kmh N -- 27.55 in933.0 mb 0.00 in0.0 mm 0.00 in/hr0.0 mm/hr 0.00 in0.0 mm
02:12 PM 73.1°F22.8°C 44.5°F6.9°C 36% - N16091.8 kmh N -- 27.52 in931.9 mb 0.00 in0.0 mm 0.00 in/hr0.0 mm/hr 0.00 in0.0 mm
02:17 PM 73.4°F23.0°C 44.3°F6.8°C 35% - N16091.8 kmh N -- 27.52 in931.9 mb 0.00 in0.0 mm 0.00 in/hr0.0 mm/hr 0.00 in0.0 mm
02:22 PM 73.7°F23.2°C 44.4°F6.9°C 35% - N16091.8 kmh N -- 27.52 in931.9 mb 0.00 in0.0 mm 0.00 in/hr0.0 mm/hr 0.00 in0.0 mm
02:27 PM 74.0°F23.3°C 44.6°F7.0°C 35% - N16091.8 kmh N -- 27.52 in931.9 mb 0.00 in0.0 mm 0.00 in/hr0.0 mm/hr 0.00 in0.0 mm
02:32 PM 74.2°F23.4°C 44.6°F7.0°C 35% - N16091.8 kmh N -- 27.52 in931.9 mb 0.00 in0.0 mm 0.00 in/hr0.0 mm/hr 0.00 in0.0 mm
02:37 PM 74.5°F23.6°C 44.4°F6.9°C 34% - N16091.8 kmh N -- 27.52 in931.9 mb 0.00 in0.0 mm 0.00 in/hr0.0 mm/hr 0.00 in0.0 mm
02:42 PM 74.7°F23.7°C 44.5°F6.9°C 34% - N16091.8 kmh N -- 27.52 in931.9 mb 0.00 in0.0 mm 0.00 in/hr0.0 mm/hr 0.00 in0.0 mm
02:47 PM 74.9°F23.8°C 44.6°F7.0°C 34% - N16091.8 kmh N -- 27.52 in931.9 mb 0.00 in0.0 mm 0.00 in/hr0.0 mm/hr 0.00 in0.0 mm
02:52 PM 75.0°F23.9°C 44.5°F6.9°C 33% - N16091.8 kmh N -- 27.52 in931.9 mb 0.00 in0.0 mm 0.00 in/hr0.0 mm/hr 0.00 in0.0 mm
02:57 PM 75.2°F24.0°C 44.2°F6.8°C 33% - N16091.8 kmh N -- 27.55 in933.0 mb 0.00 in0.0 mm 0.00 in/hr0.0 mm/hr 0.00 in0.0 mm
03:02 PM 75.4°F24.1°C 44.3°F6.8°C 33% - N16091.8 kmh N -- 27.55 in933.0 mb 0.00 in0.0 mm 0.00 in/hr0.0 mm/hr 0.00 in0.0 mm
03:07 PM 75.5°F24.2°C 44.2°F6.8°C 32% - N16091.8 kmh N -- 27.55 in933.0 mb 0.00 in0.0 mm 0.00 in/hr0.0 mm/hr 0.00 in0.0 mm
03:12 PM 75.6°F24.2°C 43.7°F6.5°C 32% - N16091.8 kmh N -- 27.58 in934.0 mb 0.00 in0.0 mm 0.00 in/hr0.0 mm/hr 0.00 in0.0 mm
03:17 PM 75.7°F24.3°C 43.8°F6.6°C 32% - N16091.8 kmh N -- 27.58 in934.0 mb 0.00 in0.0 mm 0.00 in/hr0.0 mm/hr 0.00 in0.0 mm
03:22 PM 75.9°F24.4°C 43.9°F6.6°C 32% - N16091.8 kmh N -- 27.58 in934.0 mb 0.00 in0.0 mm 0.00 in/hr0.0 mm/hr 0.00 in0.0 mm
03:27 PM 76.1°F24.5°C 44.0°F6.7°C 31% - N16091.8 kmh N -- 27.58 in934.0 mb 0.00 in0.0 mm 0.00 in/hr0.0 mm/hr 0.00 in0.0 mm
03:32 PM 76.1°F24.5°C 43.6°F6.4°C 31% - N16091.8 kmh N -- 27.58 in934.0 mb 0.00 in0.0 mm 0.00 in/hr0.0 mm/hr 0.00 in0.0 mm
03:37 PM 76.4°F24.7°C 43.6°F6.4°C 31% - N16091.8 kmh N -- 27.58 in934.0 mb 0.00 in0.0 mm 0.00 in/hr0.0 mm/hr 0.00 in0.0 mm
03:42 PM 76.6°F24.8°C 43.7°F6.5°C 31% - N16091.8 kmh N -- 27.58 in934.0 mb 0.00 in0.0 mm 0.00 in/hr0.0 mm/hr 0.00 in0.0 mm
03:47 PM 76.8°F24.9°C 44.2°F6.8°C 32% - N16091.8 kmh N -- 27.58 in934.0 mb 0.00 in0.0 mm 0.00 in/hr0.0 mm/hr 0.00 in0.0 mm
03:52 PM 76.8°F24.9°C 44.8°F7.1°C 32% - N16091.8 kmh N -- 27.58 in934.0 mb 0.00 in0.0 mm 0.00 in/hr0.0 mm/hr 0.00 in0.0 mm
03:57 PM 77.0°F25.0°C 44.9°F7.2°C 32% - N16091.8 kmh N -- 27.58 in934.0 mb 0.00 in0.0 mm 0.00 in/hr0.0 mm/hr 0.00 in0.0 mm
04:02 PM 77.0°F25.0°C 44.9°F7.2°C 32% - N16091.8 kmh N -- 27.58 in934.0 mb 0.00 in0.0 mm 0.00 in/hr0.0 mm/hr 0.00 in0.0 mm
04:07 PM 77.1°F25.1°C 45.0°F7.2°C 32% - N16091.8 kmh N -- 27.58 in934.0 mb 0.00 in0.0 mm 0.00 in/hr0.0 mm/hr 0.00 in0.0 mm
04:12 PM 77.2°F25.1°C 45.1°F7.3°C 32% 5.0 mph NE8.0 kmh NE 5.8 mph9.3 kmh 27.55 in933.0 mb 0.00 in0.0 mm 0.00 in/hr0.0 mm/hr 0.00 in0.0 mm
04:17 PM 77.0°F25.0°C 45.6°F7.6°C 33% 6.2 mph NNE10.0 kmh NNE 7.2 mph11.6 kmh 27.55 in933.0 mb 0.00 in0.0 mm 0.00 in/hr0.0 mm/hr 0.00 in0.0 mm
04:22 PM 76.8°F24.9°C 45.5°F7.5°C 33% 4.9 mph NE7.9 kmh NE 7.2 mph11.6 kmh 27.55 in933.0 mb 0.00 in0.0 mm 0.00 in/hr0.0 mm/hr 0.00 in0.0 mm
04:27 PM 76.5°F24.7°C 45.3°F7.4°C 33% 4.9 mph NE7.9 kmh NE 6.0 mph9.7 kmh 27.52 in931.9 mb 0.00 in0.0 mm 0.00 in/hr0.0 mm/hr 0.00 in0.0 mm
04:32 PM 76.3°F24.6°C 45.1°F7.3°C 33% 4.9 mph NE7.9 kmh NE 4.0 mph6.4 kmh 27.52 in931.9 mb 0.00 in0.0 mm 0.00 in/hr0.0 mm/hr 0.00 in0.0 mm
04:37 PM 76.1°F24.5°C 44.9°F7.2°C 33% - N16091.8 kmh N -- 27.52 in931.9 mb 0.00 in0.0 mm 0.00 in/hr0.0 mm/hr 0.00 in0.0 mm
04:42 PM 75.9°F24.4°C 44.7°F7.1°C 33% - N16091.8 kmh N -- 27.52 in931.9 mb 0.00 in0.0 mm 0.00 in/hr0.0 mm/hr 0.00 in0.0 mm
04:47 PM 75.6°F24.2°C 44.5°F6.9°C 33% - N16091.8 kmh N -- 27.52 in931.9 mb 0.00 in0.0 mm 0.00 in/hr0.0 mm/hr 0.00 in0.0 mm
04:52 PM 75.5°F24.2°C 44.6°F7.0°C 34% - N16091.8 kmh N -- 27.52 in931.9 mb 0.00 in0.0 mm 0.00 in/hr0.0 mm/hr 0.00 in0.0 mm
04:57 PM 75.3°F24.1°C 45.0°F7.2°C 34% - N16091.8 kmh N -- 27.55 in933.0 mb 0.00 in0.0 mm 0.00 in/hr0.0 mm/hr 0.00 in0.0 mm
05:02 PM 75.1°F23.9°C 44.8°F7.1°C 34% - N16091.8 kmh N -- 27.55 in933.0 mb 0.00 in0.0 mm 0.00 in/hr0.0 mm/hr 0.00 in0.0 mm
05:07 PM 74.8°F23.8°C 44.6°F7.0°C 34% - N16091.8 kmh N -- 27.55 in933.0 mb 0.00 in0.0 mm 0.00 in/hr0.0 mm/hr 0.00 in0.0 mm
05:12 PM 74.6°F23.7°C 44.4°F6.9°C 34% - N16091.8 kmh N -- 27.55 in933.0 mb 0.00 in0.0 mm 0.00 in/hr0.0 mm/hr 0.00 in0.0 mm
05:17 PM 74.4°F23.6°C 44.8°F7.1°C 35% - N16091.8 kmh N -- 27.55 in933.0 mb 0.00 in0.0 mm 0.00 in/hr0.0 mm/hr 0.00 in0.0 mm
05:22 PM 74.2°F23.4°C 44.9°F7.2°C 35% - N16091.8 kmh N -- 27.55 in933.0 mb 0.00 in0.0 mm 0.00 in/hr0.0 mm/hr 0.00 in0.0 mm
05:27 PM 74.1°F23.4°C 44.7°F7.1°C 35% - N16091.8 kmh N -- 27.55 in933.0 mb 0.00 in0.0 mm 0.00 in/hr0.0 mm/hr 0.00 in0.0 mm
05:32 PM 73.9°F23.3°C 44.5°F6.9°C 35% - N16091.8 kmh N -- 27.55 in933.0 mb 0.00 in0.0 mm 0.00 in/hr0.0 mm/hr 0.00 in0.0 mm
05:37 PM 73.7°F23.2°C 44.4°F6.9°C 35% - N16091.8 kmh N -- 27.55 in933.0 mb 0.00 in0.0 mm 0.00 in/hr0.0 mm/hr 0.00 in0.0 mm
05:42 PM 73.5°F23.1°C 44.6°F7.0°C 36% - N16091.8 kmh N -- 27.58 in934.0 mb 0.00 in0.0 mm 0.00 in/hr0.0 mm/hr 0.00 in0.0 mm
05:47 PM 73.2°F22.9°C 44.7°F7.1°C 36% - N16091.8 kmh N -- 27.58 in934.0 mb 0.00 in0.0 mm 0.00 in/hr0.0 mm/hr 0.00 in0.0 mm
05:52 PM 73.0°F22.8°C 44.5°F6.9°C 36% - N16091.8 kmh N -- 27.58 in934.0 mb 0.00 in0.0 mm 0.00 in/hr0.0 mm/hr 0.00 in0.0 mm
05:57 PM 72.8°F22.7°C 44.4°F6.9°C 36% - N16091.8 kmh N -- 27.58 in934.0 mb 0.00 in0.0 mm 0.00 in/hr0.0 mm/hr 0.00 in0.0 mm
06:02 PM 72.6°F22.6°C 44.2°F6.8°C 36% - N16091.8 kmh N -- 27.58 in934.0 mb 0.00 in0.0 mm 0.00 in/hr0.0 mm/hr 0.00 in0.0 mm
06:07 PM 72.4°F22.4°C 44.1°F6.7°C 36% - N16091.8 kmh N -- 27.58 in934.0 mb 0.00 in0.0 mm 0.00 in/hr0.0 mm/hr 0.00 in0.0 mm
06:12 PM 72.2°F22.3°C 44.5°F6.9°C 37% - N16091.8 kmh N -- 27.58 in934.0 mb 0.00 in0.0 mm 0.00 in/hr0.0 mm/hr 0.00 in0.0 mm
06:17 PM 72.1°F22.3°C 44.4°F6.9°C 37% - N16091.8 kmh N -- 27.58 in934.0 mb 0.00 in0.0 mm 0.00 in/hr0.0 mm/hr 0.00 in0.0 mm
06:22 PM 71.9°F22.2°C 44.2°F6.8°C 37% - N16091.8 kmh N -- 27.58 in934.0 mb 0.00 in0.0 mm 0.00 in/hr0.0 mm/hr 0.00 in0.0 mm
06:27 PM 71.8°F22.1°C 44.2°F6.8°C 38% - N16091.8 kmh N -- 27.58 in934.0 mb 0.00 in0.0 mm 0.00 in/hr0.0 mm/hr 0.00 in0.0 mm
06:32 PM 71.6°F22.0°C 44.7°F7.1°C 38% - N16091.8 kmh N -- 27.58 in934.0 mb 0.00 in0.0 mm 0.00 in/hr0.0 mm/hr 0.00 in0.0 mm
06:37 PM 71.4°F21.9°C 44.5°F6.9°C 38% - N16091.8 kmh N -- 27.58 in934.0 mb 0.00 in0.0 mm 0.00 in/hr0.0 mm/hr 0.00 in0.0 mm
06:42 PM 71.2°F21.8°C 44.8°F7.1°C 39% - N16091.8 kmh N -- 27.58 in934.0 mb 0.00 in0.0 mm 0.00 in/hr0.0 mm/hr 0.00 in0.0 mm
06:47 PM 71.1°F21.7°C 44.9°F7.2°C 39% - N16091.8 kmh N -- 27.58 in934.0 mb 0.00 in0.0 mm 0.00 in/hr0.0 mm/hr 0.00 in0.0 mm
06:52 PM 70.9°F21.6°C 44.8°F7.1°C 39% - N16091.8 kmh N -- 27.58 in934.0 mb 0.00 in0.0 mm 0.00 in/hr0.0 mm/hr 0.00 in0.0 mm
06:57 PM 70.8°F21.6°C 44.7°F7.1°C 40% - N16091.8 kmh N -- 27.58 in934.0 mb 0.00 in0.0 mm 0.00 in/hr0.0 mm/hr 0.00 in0.0 mm
07:02 PM 70.7°F21.5°C 45.0°F7.2°C 40% - N16091.8 kmh N -- 27.58 in934.0 mb 0.00 in0.0 mm 0.00 in/hr0.0 mm/hr 0.00 in0.0 mm
07:07 PM 70.5°F21.4°C 45.0°F7.2°C 40% - N16091.8 kmh N -- 27.58 in934.0 mb 0.00 in0.0 mm 0.00 in/hr0.0 mm/hr 0.00 in0.0 mm
07:12 PM 70.3°F21.3°C 44.9°F7.2°C 40% - N16091.8 kmh N -- 27.61 in935.0 mb 0.00 in0.0 mm 0.00 in/hr0.0 mm/hr 0.00 in0.0 mm
07:17 PM 70.2°F21.2°C 44.8°F7.1°C 41% - N16091.8 kmh N -- 27.61 in935.0 mb 0.00 in0.0 mm 0.00 in/hr0.0 mm/hr 0.00 in0.0 mm
07:22 PM 70.0°F21.1°C 45.2°F7.3°C 41% - N16091.8 kmh N -- 27.61 in935.0 mb 0.00 in0.0 mm 0.00 in/hr0.0 mm/hr 0.00 in0.0 mm
07:27 PM 69.8°F21.0°C 45.1°F7.3°C 41% - N16091.8 kmh N -- 27.61 in935.0 mb 0.00 in0.0 mm 0.00 in/hr0.0 mm/hr 0.00 in0.0 mm
07:32 PM 69.7°F20.9°C 45.2°F7.3°C 42% - N16091.8 kmh N -- 27.61 in935.0 mb 0.00 in0.0 mm 0.00 in/hr0.0 mm/hr 0.00 in0.0 mm
07:37 PM 69.5°F20.8°C 45.5°F7.5°C 42% - N16091.8 kmh N -- 27.61 in935.0 mb 0.00 in0.0 mm 0.00 in/hr0.0 mm/hr 0.00 in0.0 mm
07:42 PM 69.4°F20.8°C 45.3°F7.4°C 42% - N16091.8 kmh N -- 27.61 in935.0 mb 0.00 in0.0 mm 0.00 in/hr0.0 mm/hr 0.00 in0.0 mm
07:47 PM 69.2°F20.7°C 45.2°F7.3°C 42% - N16091.8 kmh N -- 27.61 in935.0 mb 0.00 in0.0 mm 0.00 in/hr0.0 mm/hr 0.00 in0.0 mm
07:52 PM 69.1°F20.6°C 45.1°F7.3°C 42% - N16091.8 kmh N -- 27.61 in935.0 mb 0.00 in0.0 mm 0.00 in/hr0.0 mm/hr 0.04 in1.0 mm
07:57 PM 68.9°F20.5°C 44.9°F7.2°C 42% - N16091.8 kmh N -- 27.61 in935.0 mb 0.00 in0.0 mm 0.00 in/hr0.0 mm/hr 0.04 in1.0 mm
08:02 PM 68.8°F20.4°C 44.8°F7.1°C 42% - N16091.8 kmh N -- 27.61 in935.0 mb 0.00 in0.0 mm 0.00 in/hr0.0 mm/hr 0.04 in1.0 mm
08:07 PM 68.7°F20.4°C 44.7°F7.1°C 42% - N16091.8 kmh N -- 27.61 in935.0 mb 0.00 in0.0 mm 0.00 in/hr0.0 mm/hr 0.04 in1.0 mm
08:12 PM 68.5°F20.3°C 44.6°F7.0°C 42% - N16091.8 kmh N -- 27.61 in935.0 mb 0.00 in0.0 mm 0.00 in/hr0.0 mm/hr 0.00 in0.0 mm
08:17 PM 68.5°F20.3°C 44.8°F7.1°C 43% - N16091.8 kmh N -- 27.61 in935.0 mb 0.00 in0.0 mm 0.00 in/hr0.0 mm/hr 0.00 in0.0 mm
08:22 PM 68.4°F20.2°C 45.0°F7.2°C 43% - N16091.8 kmh N -- 27.61 in935.0 mb 0.00 in0.0 mm 0.00 in/hr0.0 mm/hr 0.00 in0.0 mm
08:27 PM 68.2°F20.1°C 44.9°F7.2°C 43% - N16091.8 kmh N -- 27.64 in936.0 mb 0.00 in0.0 mm 0.00 in/hr0.0 mm/hr 0.00 in0.0 mm
08:32 PM 68.1°F20.1°C 44.8°F7.1°C 43% - N16091.8 kmh N -- 27.64 in936.0 mb 0.00 in0.0 mm 0.00 in/hr0.0 mm/hr 0.00 in0.0 mm
08:37 PM 68.0°F20.0°C 44.7°F7.1°C 43% - N16091.8 kmh N -- 27.64 in936.0 mb 0.00 in0.0 mm 0.00 in/hr0.0 mm/hr 0.00 in0.0 mm
08:42 PM 67.9°F19.9°C 44.6°F7.0°C 43% - N16091.8 kmh N -- 27.64 in936.0 mb 0.00 in0.0 mm 0.00 in/hr0.0 mm/hr 0.00 in0.0 mm
08:47 PM 67.8°F19.9°C 44.6°F7.0°C 44% - N16091.8 kmh N -- 27.64 in936.0 mb 0.00 in0.0 mm 0.00 in/hr0.0 mm/hr 0.00 in0.0 mm
08:52 PM 67.7°F19.8°C 45.0°F7.2°C 44% 2.3 mph N3.7 kmh N 2.9 mph4.7 kmh 27.64 in936.0 mb 0.00 in0.0 mm 0.00 in/hr0.0 mm/hr 0.04 in1.0 mm
08:57 PM 67.6°F19.8°C 45.0°F7.2°C 44% Calm Calm 2.9 mph4.7 kmh 27.64 in936.0 mb 0.00 in0.0 mm 0.00 in/hr0.0 mm/hr 0.04 in1.0 mm
09:02 PM 67.5°F19.7°C 44.8°F7.1°C 44% 0.5 mph NNW0.8 kmh NNW 2.5 mph4.0 kmh 27.64 in936.0 mb 0.00 in0.0 mm 0.00 in/hr0.0 mm/hr 0.04 in1.0 mm
09:07 PM 67.5°F19.7°C 44.8°F7.1°C 44% Calm Calm 2.5 mph4.0 kmh 27.64 in936.0 mb 0.00 in0.0 mm 0.00 in/hr0.0 mm/hr 0.04 in1.0 mm
09:12 PM 67.3°F19.6°C 44.7°F7.1°C 44% Calm Calm 3.1 mph5.0 kmh 27.61 in935.0 mb 0.00 in0.0 mm 0.00 in/hr0.0 mm/hr 0.04 in1.0 mm
09:17 PM 67.3°F19.6°C 44.6°F7.0°C 44% 1.2 mph NW1.9 kmh NW 3.1 mph5.0 kmh 27.61 in935.0 mb 0.00 in0.0 mm 0.00 in/hr0.0 mm/hr 0.04 in1.0 mm
09:22 PM 67.3°F19.6°C 44.6°F7.0°C 44% 3.4 mph SW5.5 kmh SW 4.3 mph6.9 kmh 27.61 in935.0 mb 0.00 in0.0 mm 0.00 in/hr0.0 mm/hr 0.04 in1.0 mm
09:27 PM 67.1°F19.5°C 44.5°F6.9°C 44% 1.2 mph NNW1.9 kmh NNW 4.3 mph6.9 kmh 27.64 in936.0 mb 0.00 in0.0 mm 0.00 in/hr0.0 mm/hr 0.00 in0.0 mm
09:32 PM 67.1°F19.5°C 44.5°F6.9°C 44% Calm Calm 2.5 mph4.0 kmh 27.64 in936.0 mb 0.00 in0.0 mm 0.00 in/hr0.0 mm/hr 0.04 in1.0 mm
09:37 PM 67.0°F19.4°C 44.4°F6.9°C 44% Calm Calm 2.2 mph3.5 kmh 27.64 in936.0 mb 0.00 in0.0 mm 0.00 in/hr0.0 mm/hr 0.04 in1.0 mm
09:42 PM 66.9°F19.4°C 44.3°F6.8°C 44% 2.7 mph NNW4.3 kmh NNW 3.4 mph5.5 kmh 27.61 in935.0 mb 0.00 in0.0 mm 0.00 in/hr0.0 mm/hr 0.04 in1.0 mm
09:47 PM 66.9°F19.4°C 44.3°F6.8°C 44% Calm Calm 3.4 mph5.5 kmh 27.61 in935.0 mb 0.00 in0.0 mm 0.00 in/hr0.0 mm/hr 0.04 in1.0 mm
09:52 PM 66.8°F19.3°C 44.2°F6.8°C 44% Calm Calm 1.6 mph2.6 kmh 27.61 in935.0 mb 0.00 in0.0 mm 0.00 in/hr0.0 mm/hr 0.04 in1.0 mm
09:57 PM 66.7°F19.3°C 44.2°F6.8°C 44% Calm Calm -- 27.61 in935.0 mb 0.00 in0.0 mm 0.00 in/hr0.0 mm/hr 0.00 in0.0 mm
10:03 PM 66.7°F19.3°C 44.2°F6.8°C 44% Calm Calm 2.9 mph4.7 kmh 27.61 in935.0 mb 0.00 in0.0 mm 0.00 in/hr0.0 mm/hr 0.00 in0.0 mm
10:07 PM 66.6°F19.2°C 44.1°F6.7°C 44% 0.4 mph NW0.6 kmh NW 2.9 mph4.7 kmh 27.61 in935.0 mb 0.00 in0.0 mm 0.00 in/hr0.0 mm/hr 0.04 in1.0 mm
10:12 PM 66.6°F19.2°C 44.0°F6.7°C 44% Calm Calm 1.6 mph2.6 kmh 27.64 in936.0 mb 0.00 in0.0 mm 0.00 in/hr0.0 mm/hr 0.04 in1.0 mm
10:17 PM 66.6°F19.2°C 44.0°F6.7°C 44% Calm Calm 2.2 mph3.5 kmh 27.64 in936.0 mb 0.00 in0.0 mm 0.00 in/hr0.0 mm/hr 0.04 in1.0 mm
10:22 PM 66.4°F19.1°C 43.9°F6.6°C 44% Calm Calm 2.2 mph3.5 kmh 27.64 in936.0 mb 0.00 in0.0 mm 0.00 in/hr0.0 mm/hr 0.04 in1.0 mm
10:27 PM 66.4°F19.1°C 43.9°F6.6°C 44% Calm Calm 1.3 mph2.1 kmh 27.64 in936.0 mb 0.00 in0.0 mm 0.00 in/hr0.0 mm/hr 0.04 in1.0 mm
10:32 PM 66.4°F19.1°C 43.9°F6.6°C 44% 0.3 mph NNW0.5 kmh NNW 1.3 mph2.1 kmh 27.64 in936.0 mb 0.00 in0.0 mm 0.00 in/hr0.0 mm/hr 0.00 in0.0 mm
10:37 PM 66.7°F19.3°C 44.1°F6.7°C 44% Calm Calm 1.3 mph2.1 kmh 27.64 in936.0 mb 0.00 in0.0 mm 0.00 in/hr0.0 mm/hr 0.00 in0.0 mm
10:42 PM 66.7°F19.3°C 44.2°F6.8°C 44% 0.4 mph NE0.6 kmh NE 1.3 mph2.1 kmh 27.61 in935.0 mb 0.00 in0.0 mm 0.00 in/hr0.0 mm/hr 0.04 in1.0 mm
10:47 PM 66.7°F19.3°C 44.2°F6.8°C 44% Calm Calm 1.3 mph2.1 kmh 27.61 in935.0 mb 0.00 in0.0 mm 0.00 in/hr0.0 mm/hr 0.04 in1.0 mm
10:52 PM 66.7°F19.3°C 44.1°F6.7°C 44% Calm Calm -- 27.61 in935.0 mb 0.00 in0.0 mm 0.00 in/hr0.0 mm/hr 0.04 in1.0 mm
10:57 PM 66.6°F19.2°C 44.0°F6.7°C 44% 1.1 mph N1.8 kmh N 2.9 mph4.7 kmh 27.64 in936.0 mb 0.00 in0.0 mm 0.00 in/hr0.0 mm/hr 0.00 in0.0 mm
11:02 PM 66.6°F19.2°C 44.0°F6.7°C 44% Calm Calm 2.9 mph4.7 kmh 27.64 in936.0 mb 0.00 in0.0 mm 0.00 in/hr0.0 mm/hr 0.00 in0.0 mm
11:07 PM 66.5°F19.2°C 44.0°F6.7°C 44% 0.9 mph SSW1.4 kmh SSW 2.9 mph4.7 kmh 27.64 in936.0 mb 0.00 in0.0 mm 0.00 in/hr0.0 mm/hr 0.00 in0.0 mm
11:12 PM 66.4°F19.1°C 43.8°F6.6°C 44% 0.9 mph SW1.4 kmh SW 2.9 mph4.7 kmh 27.64 in936.0 mb 0.00 in0.0 mm 0.00 in/hr0.0 mm/hr 0.04 in1.0 mm
11:17 PM 66.4°F19.1°C 43.8°F6.6°C 44% 1.7 mph NE2.7 kmh NE 2.7 mph4.3 kmh 27.64 in936.0 mb 0.00 in0.0 mm 0.00 in/hr0.0 mm/hr 0.04 in1.0 mm
11:22 PM 66.3°F19.1°C 44.1°F6.7°C 45% 0.4 mph SW0.6 kmh SW 2.7 mph4.3 kmh 27.64 in936.0 mb 0.00 in0.0 mm 0.00 in/hr0.0 mm/hr 0.00 in0.0 mm
11:27 PM 66.2°F19.0°C 44.3°F6.8°C 45% 2.1 mph N3.4 kmh N 2.7 mph4.3 kmh 27.61 in935.0 mb 0.00 in0.0 mm 0.00 in/hr0.0 mm/hr 0.00 in0.0 mm
11:32 PM 66.2°F19.0°C 44.3°F6.8°C 45% 0.3 mph N0.5 kmh N 2.5 mph4.0 kmh 27.61 in935.0 mb 0.00 in0.0 mm 0.00 in/hr0.0 mm/hr 0.00 in0.0 mm
11:37 PM 66.1°F18.9°C 44.2°F6.8°C 45% Calm Calm 2.5 mph4.0 kmh 27.61 in935.0 mb 0.00 in0.0 mm 0.00 in/hr0.0 mm/hr 0.00 in0.0 mm
11:42 PM 66.0°F18.9°C 44.1°F6.7°C 45% 0.1 mph N0.2 kmh N 2.5 mph4.0 kmh 27.61 in935.0 mb 0.00 in0.0 mm 0.00 in/hr0.0 mm/hr 0.00 in0.0 mm
11:47 PM 66.3°F19.1°C 44.1°F6.7°C 44% Calm Calm 2.5 mph4.0 kmh 27.61 in935.0 mb 0.00 in0.0 mm 0.00 in/hr0.0 mm/hr 0.00 in0.0 mm
11:52 PM 66.6°F19.2°C 44.0°F6.7°C 44% Calm Calm 2.0 mph3.2 kmh 27.61 in935.0 mb 0.00 in0.0 mm 0.00 in/hr0.0 mm/hr 0.00 in0.0 mm
11:57 PM 66.6°F19.2°C 44.0°F6.7°C 44% Calm Calm 1.3 mph2.1 kmh 27.61 in935.0 mb 0.00 in0.0 mm 0.00 in/hr0.0 mm/hr 0.00 in0.0 mm